Terminal Aerodrome Forecast
Issued by NWS Grand Forks, ND

Home | Current Version | Previous Version | Text Only | Print | Product List | Glossary On
Versions: 1 2 3 4 5 6 7 8 9 10 11 12 13 14 15 16 17 18
000
FTUS43 KFGF 261700
TAFFAR
TAF
KFAR 261735Z 2618/2718 28015G23KT P6SM SKC
     FM262100 28019G26KT P6SM VCSH BKN050
     FM270200 29014G21KT P6SM BKN040
     FM270600 31014KT P6SM BKN035
     FM271200 33015G24KT P6SM VCSH BKN035=

USA.gov is the U.S. government's official web portal to all federal, state and local government web resources and services.